Terminal Aerodrome Forecast
Issued by NWS La Crosse, WI

Home | Current Version | Previous Version | Text Only | Print | Product List | Glossary On
Versions: 1 2 3 4 5 6 7 8 9 10 11 12 13 14 15 16 17 18 19 20 21 22 23 24
000
FTUS43 KARX 011720
TAFRST
TAF
KRST 011720Z 0118/0218 19025G37KT P6SM SCT150
     FM020100 19020G28KT P6SM BKN110
     FM020400 20017G25KT 5SM -SHRA VCTS OVC035CB
      TEMPO 0205/0208 2SM TSRA BKN015CB
     FM020900 31012KT P6SM SCT060
     FM021600 30015G25KT P6SM SCT200=

USA.gov is the U.S. government's official web portal to all federal, state and local government web resources and services.